sensor_id;sensor_type;location;lat;lon;timestamp;P1;durP1;ratioP1;P2;durP2;ratioP2
18435;SDS011;9346;52.006;4.720;2023-05-19T00:01:14;6.53;;;3.33;;
18435;SDS011;9346;52.006;4.720;2023-05-19T00:03:48;5.77;;;3.30;;
18435;SDS011;9346;52.006;4.720;2023-05-19T00:06:19;6.10;;;3.93;;
18435;SDS011;9346;52.006;4.720;2023-05-19T00:08:48;9.73;;;3.10;;
18435;SDS011;9346;52.006;4.720;2023-05-19T00:11:16;4.37;;;2.90;;
18435;SDS011;9346;52.006;4.720;2023-05-19T00:13:43;6.73;;;3.40;;
18435;SDS011;9346;52.006;4.720;2023-05-19T00:16:17;8.23;;;3.27;;
18435;SDS011;9346;52.006;4.720;2023-05-19T00:18:44;3.93;;;3.07;;
18435;SDS011;9346;52.006;4.720;2023-05-19T00:21:11;7.07;;;2.87;;
18435;SDS011;9346;52.006;4.720;2023-05-19T00:23:38;9.93;;;4.40;;
18435;SDS011;9346;52.006;4.720;2023-05-19T00:26:05;8.37;;;3.33;;
18435;SDS011;9346;52.006;4.720;2023-05-19T00:28:32;6.03;;;3.50;;
18435;SDS011;9346;52.006;4.720;2023-05-19T00:30:58;9.30;;;4.10;;
18435;SDS011;9346;52.006;4.720;2023-05-19T00:33:29;6.37;;;3.40;;
18435;SDS011;9346;52.006;4.720;2023-05-19T00:35:57;8.77;;;3.37;;
18435;SDS011;9346;52.006;4.720;2023-05-19T00:38:26;12.10;;;3.83;;
18435;SDS011;9346;52.006;4.720;2023-05-19T00:40:53;4.40;;;3.47;;
18435;SDS011;9346;52.006;4.720;2023-05-19T00:43:21;4.97;;;3.50;;
18435;SDS011;9346;52.006;4.720;2023-05-19T00:45:48;11.10;;;3.47;;
18435;SDS011;9346;52.006;4.720;2023-05-19T00:48:15;6.97;;;3.43;;
18435;SDS011;9346;52.006;4.720;2023-05-19T00:50:43;9.37;;;3.73;;
18435;SDS011;9346;52.006;4.720;2023-05-19T00:53:12;13.50;;;4.00;;
18435;SDS011;9346;52.006;4.720;2023-05-19T00:55:39;7.77;;;4.10;;
18435;SDS011;9346;52.006;4.720;2023-05-19T00:58:08;5.63;;;3.53;;
18435;SDS011;9346;52.006;4.720;2023-05-19T01:00:37;9.20;;;3.97;;
18435;SDS011;9346;52.006;4.720;2023-05-19T01:03:04;8.77;;;3.93;;
18435;SDS011;9346;52.006;4.720;2023-05-19T01:05:36;9.93;;;3.97;;
18435;SDS011;9346;52.006;4.720;2023-05-19T01:08:07;7.93;;;3.47;;
18435;SDS011;9346;52.006;4.720;2023-05-19T01:10:34;5.87;;;3.60;;
18435;SDS011;9346;52.006;4.720;2023-05-19T01:13:01;7.10;;;3.23;;
18435;SDS011;9346;52.006;4.720;2023-05-19T01:15:29;8.93;;;3.37;;
18435;SDS011;9346;52.006;4.720;2023-05-19T01:18:04;8.33;;;3.53;;
18435;SDS011;9346;52.006;4.720;2023-05-19T01:20:37;7.13;;;2.93;;
18435;SDS011;9346;52.006;4.720;2023-05-19T01:23:26;12.17;;;3.87;;
18435;SDS011;9346;52.006;4.720;2023-05-19T01:26:08;9.70;;;4.40;;
18435;SDS011;9346;52.006;4.720;2023-05-19T01:29:06;8.97;;;3.80;;
18435;SDS011;9346;52.006;4.720;2023-05-19T01:31:44;5.77;;;3.70;;
18435;SDS011;9346;52.006;4.720;2023-05-19T01:34:14;7.80;;;3.90;;
18435;SDS011;9346;52.006;4.720;2023-05-19T01:36:42;6.50;;;3.70;;
18435;SDS011;9346;52.006;4.720;2023-05-19T01:39:14;4.43;;;3.30;;
18435;SDS011;9346;52.006;4.720;2023-05-19T01:41:42;6.87;;;3.60;;
18435;SDS011;9346;52.006;4.720;2023-05-19T01:44:11;5.07;;;3.57;;
18435;SDS011;9346;52.006;4.720;2023-05-19T01:46:40;5.20;;;3.40;;
18435;SDS011;9346;52.006;4.720;2023-05-19T01:49:09;5.50;;;3.37;;
18435;SDS011;9346;52.006;4.720;2023-05-19T01:51:37;8.20;;;3.47;;
18435;SDS011;9346;52.006;4.720;2023-05-19T01:54:04;5.50;;;3.40;;
18435;SDS011;9346;52.006;4.720;2023-05-19T01:56:33;9.50;;;3.80;;
18435;SDS011;9346;52.006;4.720;2023-05-19T01:59:12;4.97;;;3.07;;
18435;SDS011;9346;52.006;4.720;2023-05-19T02:01:53;7.10;;;3.57;;
18435;SDS011;9346;52.006;4.720;2023-05-19T02:04:32;8.67;;;3.20;;
18435;SDS011;9346;52.006;4.720;2023-05-19T02:07:04;5.50;;;3.40;;
18435;SDS011;9346;52.006;4.720;2023-05-19T02:09:39;10.33;;;4.27;;
18435;SDS011;9346;52.006;4.720;2023-05-19T02:12:21;7.13;;;4.50;;
18435;SDS011;9346;52.006;4.720;2023-05-19T02:14:52;12.20;;;4.17;;
18435;SDS011;9346;52.006;4.720;2023-05-19T02:17:25;7.73;;;3.60;;
18435;SDS011;9346;52.006;4.720;2023-05-19T02:19:59;11.47;;;3.57;;
18435;SDS011;9346;52.006;4.720;2023-05-19T02:22:28;6.10;;;3.10;;
18435;SDS011;9346;52.006;4.720;2023-05-19T02:24:55;11.27;;;3.93;;
18435;SDS011;9346;52.006;4.720;2023-05-19T02:27:22;5.17;;;3.30;;
18435;SDS011;9346;52.006;4.720;2023-05-19T02:29:50;10.70;;;4.00;;
18435;SDS011;9346;52.006;4.720;2023-05-19T02:32:17;5.67;;;3.67;;
18435;SDS011;9346;52.006;4.720;2023-05-19T02:34:44;10.60;;;3.57;;
18435;SDS011;9346;52.006;4.720;2023-05-19T02:37:14;6.77;;;3.77;;
18435;SDS011;9346;52.006;4.720;2023-05-19T02:39:41;5.10;;;3.37;;
18435;SDS011;9346;52.006;4.720;2023-05-19T02:42:09;7.40;;;3.37;;
18435;SDS011;9346;52.006;4.720;2023-05-19T02:44:38;8.70;;;3.97;;
18435;SDS011;9346;52.006;4.720;2023-05-19T02:47:05;6.90;;;3.50;;
18435;SDS011;9346;52.006;4.720;2023-05-19T02:49:32;9.17;;;3.60;;
18435;SDS011;9346;52.006;4.720;2023-05-19T02:52:00;6.47;;;4.23;;
18435;SDS011;9346;52.006;4.720;2023-05-19T02:54:32;8.53;;;3.37;;
18435;SDS011;9346;52.006;4.720;2023-05-19T02:57:00;9.23;;;3.93;;
18435;SDS011;9346;52.006;4.720;2023-05-19T02:59:26;7.93;;;4.57;;
18435;SDS011;9346;52.006;4.720;2023-05-19T03:01:59;8.37;;;3.67;;
18435;SDS011;9346;52.006;4.720;2023-05-19T03:04:27;5.20;;;3.50;;
18435;SDS011;9346;52.006;4.720;2023-05-19T03:06:55;9.87;;;4.07;;
18435;SDS011;9346;52.006;4.720;2023-05-19T03:09:22;7.93;;;3.67;;
18435;SDS011;9346;52.006;4.720;2023-05-19T03:11:52;5.57;;;3.87;;
18435;SDS011;9346;52.006;4.720;2023-05-19T03:14:19;12.17;;;4.07;;
18435;SDS011;9346;52.006;4.720;2023-05-19T03:16:47;10.53;;;4.03;;
18435;SDS011;9346;52.006;4.720;2023-05-19T03:19:14;13.63;;;3.60;;
18435;SDS011;9346;52.006;4.720;2023-05-19T03:21:42;11.03;;;3.90;;
18435;SDS011;9346;52.006;4.720;2023-05-19T03:24:09;14.93;;;4.37;;
18435;SDS011;9346;52.006;4.720;2023-05-19T03:26:36;8.73;;;4.10;;
18435;SDS011;9346;52.006;4.720;2023-05-19T03:29:05;7.13;;;4.37;;
18435;SDS011;9346;52.006;4.720;2023-05-19T03:31:34;6.60;;;3.73;;
18435;SDS011;9346;52.006;4.720;2023-05-19T03:34:00;12.03;;;5.13;;
18435;SDS011;9346;52.006;4.720;2023-05-19T03:36:27;11.10;;;4.43;;
18435;SDS011;9346;52.006;4.720;2023-05-19T03:39:06;8.93;;;4.30;;
18435;SDS011;9346;52.006;4.720;2023-05-19T03:41:33;6.07;;;4.20;;
18435;SDS011;9346;52.006;4.720;2023-05-19T03:44:00;9.83;;;4.07;;
18435;SDS011;9346;52.006;4.720;2023-05-19T03:46:29;7.20;;;3.83;;
18435;SDS011;9346;52.006;4.720;2023-05-19T03:48:56;6.50;;;4.50;;
18435;SDS011;9346;52.006;4.720;2023-05-19T03:51:23;10.43;;;4.63;;
18435;SDS011;9346;52.006;4.720;2023-05-19T03:53:52;11.47;;;4.07;;
18435;SDS011;9346;52.006;4.720;2023-05-19T03:56:19;13.37;;;4.33;;
18435;SDS011;9346;52.006;4.720;2023-05-19T03:58:47;8.60;;;3.87;;
18435;SDS011;9346;52.006;4.720;2023-05-19T04:01:14;9.63;;;4.17;;
18435;SDS011;9346;52.006;4.720;2023-05-19T04:03:43;8.33;;;4.30;;
18435;SDS011;9346;52.006;4.720;2023-05-19T04:06:10;11.40;;;5.23;;
18435;SDS011;9346;52.006;4.720;2023-05-19T04:08:37;6.43;;;4.20;;
18435;SDS011;9346;52.006;4.720;2023-05-19T04:11:08;12.17;;;5.17;;
18435;SDS011;9346;52.006;4.720;2023-05-19T04:13:35;9.37;;;4.70;;
18435;SDS011;9346;52.006;4.720;2023-05-19T04:16:02;9.20;;;4.47;;
18435;SDS011;9346;52.006;4.720;2023-05-19T04:18:30;14.77;;;4.63;;
18435;SDS011;9346;52.006;4.720;2023-05-19T04:20:58;11.37;;;4.03;;
18435;SDS011;9346;52.006;4.720;2023-05-19T04:23:25;10.87;;;4.27;;
18435;SDS011;9346;52.006;4.720;2023-05-19T04:25:52;12.97;;;5.27;;
18435;SDS011;9346;52.006;4.720;2023-05-19T04:28:21;10.90;;;4.53;;
18435;SDS011;9346;52.006;4.720;2023-05-19T04:30:48;8.83;;;4.70;;
18435;SDS011;9346;52.006;4.720;2023-05-19T04:33:15;9.30;;;4.90;;
18435;SDS011;9346;52.006;4.720;2023-05-19T04:35:44;15.90;;;5.40;;
18435;SDS011;9346;52.006;4.720;2023-05-19T04:38:13;8.73;;;4.50;;
18435;SDS011;9346;52.006;4.720;2023-05-19T04:40:42;17.17;;;4.87;;
18435;SDS011;9346;52.006;4.720;2023-05-19T04:43:10;7.03;;;4.03;;
18435;SDS011;9346;52.006;4.720;2023-05-19T04:45:36;6.63;;;4.57;;
18435;SDS011;9346;52.006;4.720;2023-05-19T04:48:06;7.13;;;4.80;;
18435;SDS011;9346;52.006;4.720;2023-05-19T04:50:33;10.40;;;4.87;;
18435;SDS011;9346;52.006;4.720;2023-05-19T04:53:02;11.60;;;5.13;;
18435;SDS011;9346;52.006;4.720;2023-05-19T04:55:31;8.57;;;4.70;;
18435;SDS011;9346;52.006;4.720;2023-05-19T04:57:58;8.03;;;4.53;;
18435;SDS011;9346;52.006;4.720;2023-05-19T05:00:25;15.13;;;5.10;;
18435;SDS011;9346;52.006;4.720;2023-05-19T05:02:52;12.90;;;5.30;;
18435;SDS011;9346;52.006;4.720;2023-05-19T05:05:21;11.60;;;5.00;;
18435;SDS011;9346;52.006;4.720;2023-05-19T05:07:48;16.23;;;5.27;;
18435;SDS011;9346;52.006;4.720;2023-05-19T05:10:18;10.73;;;4.50;;
18435;SDS011;9346;52.006;4.720;2023-05-19T05:12:48;9.40;;;4.93;;
18435;SDS011;9346;52.006;4.720;2023-05-19T05:15:15;8.70;;;4.83;;
18435;SDS011;9346;52.006;4.720;2023-05-19T05:17:43;11.17;;;6.13;;
18435;SDS011;9346;52.006;4.720;2023-05-19T05:20:11;11.67;;;4.80;;
18435;SDS011;9346;52.006;4.720;2023-05-19T05:22:39;13.27;;;5.90;;
18435;SDS011;9346;52.006;4.720;2023-05-19T05:25:07;13.60;;;4.93;;
18435;SDS011;9346;52.006;4.720;2023-05-19T05:27:35;14.80;;;4.93;;
18435;SDS011;9346;52.006;4.720;2023-05-19T05:30:06;14.23;;;5.07;;
18435;SDS011;9346;52.006;4.720;2023-05-19T05:32:34;11.17;;;5.67;;
18435;SDS011;9346;52.006;4.720;2023-05-19T05:35:01;9.63;;;5.57;;
18435;SDS011;9346;52.006;4.720;2023-05-19T05:37:29;14.80;;;5.37;;
18435;SDS011;9346;52.006;4.720;2023-05-19T05:39:56;9.10;;;4.83;;
18435;SDS011;9346;52.006;4.720;2023-05-19T05:42:23;13.03;;;5.13;;
18435;SDS011;9346;52.006;4.720;2023-05-19T05:44:50;12.73;;;5.20;;
18435;SDS011;9346;52.006;4.720;2023-05-19T05:47:19;15.47;;;5.93;;
18435;SDS011;9346;52.006;4.720;2023-05-19T05:49:47;9.87;;;5.53;;
18435;SDS011;9346;52.006;4.720;2023-05-19T05:52:14;12.07;;;5.27;;
18435;SDS011;9346;52.006;4.720;2023-05-19T05:54:48;13.90;;;5.93;;
18435;SDS011;9346;52.006;4.720;2023-05-19T05:57:15;14.17;;;5.90;;
18435;SDS011;9346;52.006;4.720;2023-05-19T05:59:43;11.90;;;5.67;;
18435;SDS011;9346;52.006;4.720;2023-05-19T06:02:11;12.60;;;5.20;;
18435;SDS011;9346;52.006;4.720;2023-05-19T06:04:39;12.47;;;5.93;;
18435;SDS011;9346;52.006;4.720;2023-05-19T06:07:06;10.30;;;5.20;;
18435;SDS011;9346;52.006;4.720;2023-05-19T06:09:33;13.63;;;5.30;;
18435;SDS011;9346;52.006;4.720;2023-05-19T06:12:00;9.07;;;5.50;;
18435;SDS011;9346;52.006;4.720;2023-05-19T06:14:27;8.47;;;5.17;;
18435;SDS011;9346;52.006;4.720;2023-05-19T06:16:55;14.60;;;6.70;;
18435;SDS011;9346;52.006;4.720;2023-05-19T06:19:22;12.20;;;5.47;;
18435;SDS011;9346;52.006;4.720;2023-05-19T06:21:51;13.73;;;6.03;;
18435;SDS011;9346;52.006;4.720;2023-05-19T06:24:18;14.00;;;6.33;;
18435;SDS011;9346;52.006;4.720;2023-05-19T06:26:45;9.17;;;4.77;;
18435;SDS011;9346;52.006;4.720;2023-05-19T06:29:13;9.40;;;5.13;;
18435;SDS011;9346;52.006;4.720;2023-05-19T06:31:41;8.77;;;5.30;;
18435;SDS011;9346;52.006;4.720;2023-05-19T06:34:07;13.07;;;5.43;;
18435;SDS011;9346;52.006;4.720;2023-05-19T06:36:36;10.00;;;5.07;;
18435;SDS011;9346;52.006;4.720;2023-05-19T06:39:06;14.83;;;5.57;;
18435;SDS011;9346;52.006;4.720;2023-05-19T06:41:33;11.40;;;6.17;;
18435;SDS011;9346;52.006;4.720;2023-05-19T06:43:59;10.57;;;5.60;;
18435;SDS011;9346;52.006;4.720;2023-05-19T06:46:26;15.73;;;6.43;;
18435;SDS011;9346;52.006;4.720;2023-05-19T06:48:56;13.30;;;4.90;;
18435;SDS011;9346;52.006;4.720;2023-05-19T06:51:23;9.77;;;5.47;;
18435;SDS011;9346;52.006;4.720;2023-05-19T06:53:51;9.83;;;5.83;;
18435;SDS011;9346;52.006;4.720;2023-05-19T06:56:19;8.40;;;4.77;;
18435;SDS011;9346;52.006;4.720;2023-05-19T06:58:46;9.27;;;5.07;;
18435;SDS011;9346;52.006;4.720;2023-05-19T07:01:13;14.93;;;4.50;;
18435;SDS011;9346;52.006;4.720;2023-05-19T07:03:40;9.27;;;4.70;;
18435;SDS011;9346;52.006;4.720;2023-05-19T07:06:07;7.67;;;4.80;;
18435;SDS011;9346;52.006;4.720;2023-05-19T07:08:34;8.10;;;4.10;;
18435;SDS011;9346;52.006;4.720;2023-05-19T07:11:01;8.97;;;4.77;;
18435;SDS011;9346;52.006;4.720;2023-05-19T07:13:30;12.83;;;4.87;;
18435;SDS011;9346;52.006;4.720;2023-05-19T07:15:57;9.73;;;3.83;;
18435;SDS011;9346;52.006;4.720;2023-05-19T07:18:24;6.70;;;3.77;;
18435;SDS011;9346;52.006;4.720;2023-05-19T07:20:53;10.47;;;4.60;;
18435;SDS011;9346;52.006;4.720;2023-05-19T07:23:21;10.07;;;4.37;;
18435;SDS011;9346;52.006;4.720;2023-05-19T07:25:48;7.50;;;4.37;;
18435;SDS011;9346;52.006;4.720;2023-05-19T07:28:15;10.63;;;4.20;;
18435;SDS011;9346;52.006;4.720;2023-05-19T07:30:44;10.23;;;4.37;;
18435;SDS011;9346;52.006;4.720;2023-05-19T07:33:11;7.53;;;4.10;;
18435;SDS011;9346;52.006;4.720;2023-05-19T07:35:38;6.47;;;4.57;;
18435;SDS011;9346;52.006;4.720;2023-05-19T07:38:05;7.90;;;3.97;;
18435;SDS011;9346;52.006;4.720;2023-05-19T07:40:32;8.17;;;3.80;;
18435;SDS011;9346;52.006;4.720;2023-05-19T07:42:59;7.63;;;4.27;;
18435;SDS011;9346;52.006;4.720;2023-05-19T07:45:26;12.53;;;4.10;;
18435;SDS011;9346;52.006;4.720;2023-05-19T07:47:55;7.03;;;4.37;;
18435;SDS011;9346;52.006;4.720;2023-05-19T07:50:22;8.70;;;4.13;;
18435;SDS011;9346;52.006;4.720;2023-05-19T07:52:49;5.90;;;3.73;;
18435;SDS011;9346;52.006;4.720;2023-05-19T07:55:16;12.47;;;5.07;;
18435;SDS011;9346;52.006;4.720;2023-05-19T07:57:43;5.10;;;3.40;;
18435;SDS011;9346;52.006;4.720;2023-05-19T08:00:10;6.63;;;3.80;;
18435;SDS011;9346;52.006;4.720;2023-05-19T08:02:38;6.23;;;3.53;;
18435;SDS011;9346;52.006;4.720;2023-05-19T08:05:10;8.30;;;3.70;;
18435;SDS011;9346;52.006;4.720;2023-05-19T08:07:39;5.87;;;3.90;;
18435;SDS011;9346;52.006;4.720;2023-05-19T08:10:06;4.97;;;3.63;;
18435;SDS011;9346;52.006;4.720;2023-05-19T08:12:33;7.40;;;3.47;;
18435;SDS011;9346;52.006;4.720;2023-05-19T08:15:00;5.87;;;3.67;;
18435;SDS011;9346;52.006;4.720;2023-05-19T08:17:27;6.43;;;2.93;;
18435;SDS011;9346;52.006;4.720;2023-05-19T08:19:54;4.83;;;3.40;;
18435;SDS011;9346;52.006;4.720;2023-05-19T08:22:23;4.53;;;3.03;;
18435;SDS011;9346;52.006;4.720;2023-05-19T08:24:50;8.70;;;2.83;;
18435;SDS011;9346;52.006;4.720;2023-05-19T08:27:17;5.33;;;2.80;;
18435;SDS011;9346;52.006;4.720;2023-05-19T08:29:44;4.73;;;3.00;;
18435;SDS011;9346;52.006;4.720;2023-05-19T08:32:10;8.33;;;3.00;;
18435;SDS011;9346;52.006;4.720;2023-05-19T08:34:37;4.10;;;2.43;;
18435;SDS011;9346;52.006;4.720;2023-05-19T08:37:05;5.50;;;2.80;;
18435;SDS011;9346;52.006;4.720;2023-05-19T08:39:33;4.77;;;2.83;;
18435;SDS011;9346;52.006;4.720;2023-05-19T08:42:00;8.03;;;2.50;;
18435;SDS011;9346;52.006;4.720;2023-05-19T08:44:27;7.10;;;2.93;;
18435;SDS011;9346;52.006;4.720;2023-05-19T08:46:55;4.10;;;2.50;;
18435;SDS011;9346;52.006;4.720;2023-05-19T08:49:29;3.53;;;2.70;;
18435;SDS011;9346;52.006;4.720;2023-05-19T08:51:59;6.47;;;2.40;;
18435;SDS011;9346;52.006;4.720;2023-05-19T08:54:32;2.80;;;2.20;;
18435;SDS011;9346;52.006;4.720;2023-05-19T08:57:07;4.23;;;2.33;;
18435;SDS011;9346;52.006;4.720;2023-05-19T08:59:34;3.97;;;2.10;;
18435;SDS011;9346;52.006;4.720;2023-05-19T09:02:02;4.63;;;1.93;;
18435;SDS011;9346;52.006;4.720;2023-05-19T09:04:29;2.80;;;2.10;;
18435;SDS011;9346;52.006;4.720;2023-05-19T09:06:57;5.57;;;2.63;;
18435;SDS011;9346;52.006;4.720;2023-05-19T09:09:26;4.80;;;2.50;;
18435;SDS011;9346;52.006;4.720;2023-05-19T09:11:56;6.17;;;2.10;;
18435;SDS011;9346;52.006;4.720;2023-05-19T09:14:23;2.67;;;1.67;;
18435;SDS011;9346;52.006;4.720;2023-05-19T09:16:50;2.60;;;1.70;;
18435;SDS011;9346;52.006;4.720;2023-05-19T09:19:17;2.80;;;1.90;;
18435;SDS011;9346;52.006;4.720;2023-05-19T09:21:45;4.07;;;1.90;;
18435;SDS011;9346;52.006;4.720;2023-05-19T09:24:12;2.73;;;1.50;;
18435;SDS011;9346;52.006;4.720;2023-05-19T09:26:39;2.07;;;1.70;;
18435;SDS011;9346;52.006;4.720;2023-05-19T09:29:11;4.07;;;1.73;;
18435;SDS011;9346;52.006;4.720;2023-05-19T09:31:38;6.90;;;2.07;;
18435;SDS011;9346;52.006;4.720;2023-05-19T09:34:10;3.10;;;1.57;;
18435;SDS011;9346;52.006;4.720;2023-05-19T09:36:38;2.87;;;1.60;;
18435;SDS011;9346;52.006;4.720;2023-05-19T09:39:12;2.70;;;1.80;;
18435;SDS011;9346;52.006;4.720;2023-05-19T09:41:39;3.70;;;1.80;;
18435;SDS011;9346;52.006;4.720;2023-05-19T09:44:07;2.47;;;1.70;;
18435;SDS011;9346;52.006;4.720;2023-05-19T09:46:47;2.43;;;1.63;;
18435;SDS011;9346;52.006;4.720;2023-05-19T09:49:18;2.63;;;1.77;;
18435;SDS011;9346;52.006;4.720;2023-05-19T09:51:48;3.13;;;1.83;;
18435;SDS011;9346;52.006;4.720;2023-05-19T09:54:15;6.73;;;2.20;;
18435;SDS011;9346;52.006;4.720;2023-05-19T09:56:42;2.70;;;1.77;;
18435;SDS011;9346;52.006;4.720;2023-05-19T09:59:09;1.90;;;1.50;;
18435;SDS011;9346;52.006;4.720;2023-05-19T10:01:41;2.10;;;1.53;;
18435;SDS011;9346;52.006;4.720;2023-05-19T10:04:16;3.60;;;2.10;;
18435;SDS011;9346;52.006;4.720;2023-05-19T10:06:43;3.43;;;2.00;;
18435;SDS011;9346;52.006;4.720;2023-05-19T10:09:11;3.07;;;1.70;;
18435;SDS011;9346;52.006;4.720;2023-05-19T10:11:38;5.00;;;1.63;;
18435;SDS011;9346;52.006;4.720;2023-05-19T10:14:06;3.83;;;1.93;;
18435;SDS011;9346;52.006;4.720;2023-05-19T10:16:35;3.90;;;1.90;;
18435;SDS011;9346;52.006;4.720;2023-05-19T10:19:05;2.50;;;1.57;;
18435;SDS011;9346;52.006;4.720;2023-05-19T10:21:34;3.80;;;1.80;;
18435;SDS011;9346;52.006;4.720;2023-05-19T10:24:01;6.37;;;2.33;;
18435;SDS011;9346;52.006;4.720;2023-05-19T10:26:28;4.70;;;2.17;;
18435;SDS011;9346;52.006;4.720;2023-05-19T10:28:59;4.10;;;2.10;;
18435;SDS011;9346;52.006;4.720;2023-05-19T10:31:30;3.90;;;2.17;;
18435;SDS011;9346;52.006;4.720;2023-05-19T10:34:01;4.93;;;2.03;;
18435;SDS011;9346;52.006;4.720;2023-05-19T10:36:42;3.27;;;2.07;;
18435;SDS011;9346;52.006;4.720;2023-05-19T10:39:14;5.70;;;2.40;;
18435;SDS011;9346;52.006;4.720;2023-05-19T10:41:45;5.17;;;2.00;;
18435;SDS011;9346;52.006;4.720;2023-05-19T10:44:19;3.77;;;1.80;;
18435;SDS011;9346;52.006;4.720;2023-05-19T10:47:00;4.37;;;2.00;;
18435;SDS011;9346;52.006;4.720;2023-05-19T10:49:29;3.90;;;2.30;;
18435;SDS011;9346;52.006;4.720;2023-05-19T10:52:00;4.97;;;2.10;;
18435;SDS011;9346;52.006;4.720;2023-05-19T10:54:40;3.57;;;2.40;;
18435;SDS011;9346;52.006;4.720;2023-05-19T10:57:07;7.40;;;2.10;;
18435;SDS011;9346;52.006;4.720;2023-05-19T10:59:36;3.77;;;2.50;;
18435;SDS011;9346;52.006;4.720;2023-05-19T11:02:03;4.73;;;2.83;;
18435;SDS011;9346;52.006;4.720;2023-05-19T11:07:16;3.07;;;2.20;;
18435;SDS011;9346;52.006;4.720;2023-05-19T11:09:48;2.10;;;1.87;;
18435;SDS011;9346;52.006;4.720;2023-05-19T11:12:19;3.30;;;2.00;;
18435;SDS011;9346;52.006;4.720;2023-05-19T11:14:47;4.27;;;1.67;;
18435;SDS011;9346;52.006;4.720;2023-05-19T11:17:14;5.40;;;1.83;;
18435;SDS011;9346;52.006;4.720;2023-05-19T11:19:52;4.00;;;1.70;;
18435;SDS011;9346;52.006;4.720;2023-05-19T11:22:21;4.50;;;1.73;;
18435;SDS011;9346;52.006;4.720;2023-05-19T11:24:50;3.13;;;1.83;;
18435;SDS011;9346;52.006;4.720;2023-05-19T11:27:25;3.17;;;1.80;;
18435;SDS011;9346;52.006;4.720;2023-05-19T11:29:53;5.03;;;2.03;;
18435;SDS011;9346;52.006;4.720;2023-05-19T11:32:24;3.97;;;1.53;;
18435;SDS011;9346;52.006;4.720;2023-05-19T11:34:55;4.77;;;2.00;;
18435;SDS011;9346;52.006;4.720;2023-05-19T11:37:23;3.97;;;1.60;;
18435;SDS011;9346;52.006;4.720;2023-05-19T11:39:50;2.93;;;1.83;;
18435;SDS011;9346;52.006;4.720;2023-05-19T11:42:18;2.67;;;1.70;;
18435;SDS011;9346;52.006;4.720;2023-05-19T11:44:45;4.10;;;1.90;;
18435;SDS011;9346;52.006;4.720;2023-05-19T11:47:12;3.00;;;1.90;;
18435;SDS011;9346;52.006;4.720;2023-05-19T11:49:41;2.53;;;1.80;;
18435;SDS011;9346;52.006;4.720;2023-05-19T11:52:11;3.17;;;1.80;;
18435;SDS011;9346;52.006;4.720;2023-05-19T11:54:38;3.67;;;1.80;;
18435;SDS011;9346;52.006;4.720;2023-05-19T11:57:06;2.93;;;1.60;;
18435;SDS011;9346;52.006;4.720;2023-05-19T11:59:35;2.63;;;2.03;;
18435;SDS011;9346;52.006;4.720;2023-05-19T12:02:14;3.10;;;2.27;;
18435;SDS011;9346;52.006;4.720;2023-05-19T12:04:43;2.70;;;1.90;;
18435;SDS011;9346;52.006;4.720;2023-05-19T12:07:13;2.87;;;1.90;;
18435;SDS011;9346;52.006;4.720;2023-05-19T12:09:42;2.67;;;1.70;;
18435;SDS011;9346;52.006;4.720;2023-05-19T12:12:12;2.30;;;1.80;;
18435;SDS011;9346;52.006;4.720;2023-05-19T12:14:39;3.07;;;2.43;;
18435;SDS011;9346;52.006;4.720;2023-05-19T12:17:09;6.80;;;2.10;;
18435;SDS011;9346;52.006;4.720;2023-05-19T12:19:38;2.50;;;2.07;;
18435;SDS011;9346;52.006;4.720;2023-05-19T12:22:05;4.17;;;2.43;;
18435;SDS011;9346;52.006;4.720;2023-05-19T12:24:35;3.17;;;2.00;;
18435;SDS011;9346;52.006;4.720;2023-05-19T12:27:08;2.83;;;1.80;;
18435;SDS011;9346;52.006;4.720;2023-05-19T12:29:36;5.27;;;2.13;;
18435;SDS011;9346;52.006;4.720;2023-05-19T12:32:04;3.97;;;2.10;;
18435;SDS011;9346;52.006;4.720;2023-05-19T12:34:33;5.53;;;1.90;;
18435;SDS011;9346;52.006;4.720;2023-05-19T12:37:01;8.47;;;2.83;;
18435;SDS011;9346;52.006;4.720;2023-05-19T12:39:28;4.83;;;2.43;;
18435;SDS011;9346;52.006;4.720;2023-05-19T12:42:02;3.33;;;2.63;;
18435;SDS011;9346;52.006;4.720;2023-05-19T12:44:30;4.27;;;2.27;;
18435;SDS011;9346;52.006;4.720;2023-05-19T12:47:03;5.97;;;2.40;;
18435;SDS011;9346;52.006;4.720;2023-05-19T12:49:31;4.53;;;2.40;;
18435;SDS011;9346;52.006;4.720;2023-05-19T12:51:59;5.33;;;2.87;;
18435;SDS011;9346;52.006;4.720;2023-05-19T12:54:26;4.73;;;2.27;;
18435;SDS011;9346;52.006;4.720;2023-05-19T12:56:56;4.73;;;2.00;;
18435;SDS011;9346;52.006;4.720;2023-05-19T12:59:26;3.53;;;2.10;;
18435;SDS011;9346;52.006;4.720;2023-05-19T13:01:54;5.80;;;2.37;;
18435;SDS011;9346;52.006;4.720;2023-05-19T13:04:21;5.33;;;2.37;;
18435;SDS011;9346;52.006;4.720;2023-05-19T13:06:48;4.87;;;2.03;;
18435;SDS011;9346;52.006;4.720;2023-05-19T13:09:15;2.43;;;1.57;;
18435;SDS011;9346;52.006;4.720;2023-05-19T13:11:43;2.90;;;2.07;;
18435;SDS011;9346;52.006;4.720;2023-05-19T13:14:14;3.43;;;2.10;;
18435;SDS011;9346;52.006;4.720;2023-05-19T13:16:44;4.20;;;2.50;;
18435;SDS011;9346;52.006;4.720;2023-05-19T13:19:12;4.13;;;2.10;;
18435;SDS011;9346;52.006;4.720;2023-05-19T13:21:39;3.83;;;1.90;;
18435;SDS011;9346;52.006;4.720;2023-05-19T13:24:06;2.60;;;1.80;;
18435;SDS011;9346;52.006;4.720;2023-05-19T13:26:33;5.70;;;2.20;;
18435;SDS011;9346;52.006;4.720;2023-05-19T13:29:00;7.97;;;2.43;;
18435;SDS011;9346;52.006;4.720;2023-05-19T13:31:28;3.57;;;2.13;;
18435;SDS011;9346;52.006;4.720;2023-05-19T13:33:57;5.63;;;2.17;;
18435;SDS011;9346;52.006;4.720;2023-05-19T13:36:24;2.90;;;2.10;;
18435;SDS011;9346;52.006;4.720;2023-05-19T13:38:51;2.53;;;1.67;;
18435;SDS011;9346;52.006;4.720;2023-05-19T13:41:21;3.60;;;1.80;;
18435;SDS011;9346;52.006;4.720;2023-05-19T13:43:48;4.10;;;2.90;;
18435;SDS011;9346;52.006;4.720;2023-05-19T13:46:15;4.53;;;2.57;;
18435;SDS011;9346;52.006;4.720;2023-05-19T13:48:42;3.20;;;1.90;;
18435;SDS011;9346;52.006;4.720;2023-05-19T13:51:11;4.03;;;2.10;;
18435;SDS011;9346;52.006;4.720;2023-05-19T13:53:38;4.57;;;1.80;;
18435;SDS011;9346;52.006;4.720;2023-05-19T13:56:05;4.87;;;2.13;;
18435;SDS011;9346;52.006;4.720;2023-05-19T13:58:32;4.50;;;2.20;;
18435;SDS011;9346;52.006;4.720;2023-05-19T14:00:59;2.00;;;1.70;;
18435;SDS011;9346;52.006;4.720;2023-05-19T14:03:29;4.07;;;2.20;;
18435;SDS011;9346;52.006;4.720;2023-05-19T14:06:01;4.60;;;1.93;;
18435;SDS011;9346;52.006;4.720;2023-05-19T14:08:30;4.57;;;2.20;;
18435;SDS011;9346;52.006;4.720;2023-05-19T14:10:57;3.73;;;1.93;;
18435;SDS011;9346;52.006;4.720;2023-05-19T14:13:24;5.50;;;2.37;;
18435;SDS011;9346;52.006;4.720;2023-05-19T14:15:52;3.87;;;1.80;;
18435;SDS011;9346;52.006;4.720;2023-05-19T14:18:22;3.17;;;1.70;;
18435;SDS011;9346;52.006;4.720;2023-05-19T14:20:49;2.57;;;2.10;;
18435;SDS011;9346;52.006;4.720;2023-05-19T14:23:16;3.30;;;2.07;;
18435;SDS011;9346;52.006;4.720;2023-05-19T14:25:47;1.93;;;1.60;;
18435;SDS011;9346;52.006;4.720;2023-05-19T14:28:13;3.30;;;2.07;;
18435;SDS011;9346;52.006;4.720;2023-05-19T14:30:40;2.97;;;1.40;;
18435;SDS011;9346;52.006;4.720;2023-05-19T14:33:07;3.60;;;2.07;;
18435;SDS011;9346;52.006;4.720;2023-05-19T14:35:35;3.30;;;2.17;;
18435;SDS011;9346;52.006;4.720;2023-05-19T14:41:26;5.27;;;2.33;;
18435;SDS011;9346;52.006;4.720;2023-05-19T14:43:52;3.10;;;1.77;;
18435;SDS011;9346;52.006;4.720;2023-05-19T14:46:20;2.17;;;1.93;;
18435;SDS011;9346;52.006;4.720;2023-05-19T14:48:47;2.83;;;2.13;;
18435;SDS011;9346;52.006;4.720;2023-05-19T14:51:13;4.17;;;2.00;;
18435;SDS011;9346;52.006;4.720;2023-05-19T14:53:40;5.87;;;2.03;;
18435;SDS011;9346;52.006;4.720;2023-05-19T14:56:07;2.53;;;1.70;;
18435;SDS011;9346;52.006;4.720;2023-05-19T14:58:36;8.83;;;1.90;;
18435;SDS011;9346;52.006;4.720;2023-05-19T15:01:03;6.23;;;1.70;;
18435;SDS011;9346;52.006;4.720;2023-05-19T15:03:30;2.57;;;1.73;;
18435;SDS011;9346;52.006;4.720;2023-05-19T15:05:57;4.03;;;2.13;;
18435;SDS011;9346;52.006;4.720;2023-05-19T15:08:24;3.80;;;2.07;;
18435;SDS011;9346;52.006;4.720;2023-05-19T15:10:51;3.70;;;2.10;;
18435;SDS011;9346;52.006;4.720;2023-05-19T15:13:18;2.60;;;1.77;;